createdAt,value
2022-09-10T00:01:41.539Z,97977.13
2022-09-10T00:04:15.317Z,97974.44
2022-09-10T00:06:45.364Z,97985.25
2022-09-10T00:09:15.956Z,97984.69
2022-09-10T00:11:46.513Z,97982.59
2022-09-10T00:14:22.648Z,97989.22
2022-09-10T00:16:52.338Z,97988.69
2022-09-10T00:19:22.267Z,97984.13
2022-09-10T00:21:51.541Z,97976.44
2022-09-10T00:24:22.627Z,97987.56
2022-09-10T00:26:51.872Z,97983.88
2022-09-10T00:29:21.136Z,97977.50
2022-09-10T00:31:50.428Z,97981.75
2022-09-10T00:34:19.627Z,97981.25
2022-09-10T00:36:48.908Z,97984.94
2022-09-10T00:39:18.791Z,97986.00
2022-09-10T00:41:49.105Z,97985.47
2022-09-10T00:44:39.853Z,97978.59
2022-09-10T00:47:24.809Z,97979.63
2022-09-10T00:50:06.269Z,97976.19
2022-09-10T00:52:39.605Z,97961.63
2022-09-10T00:55:12.586Z,97964.03
2022-09-10T00:57:46.215Z,97963.25
2022-09-10T01:00:16.450Z,97959.25
2022-09-10T01:02:45.770Z,97953.16
2022-09-10T01:05:17.567Z,97955.31
2022-09-10T01:07:48.205Z,97961.69
2022-09-10T01:10:28.918Z,97959.03
2022-09-10T01:13:34.310Z,97964.84
2022-09-10T01:16:48.547Z,97952.16
2022-09-10T01:19:50.564Z,97934.41
2022-09-10T01:22:47.573Z,97937.59
2022-09-10T01:25:31.834Z,97940.50
2022-09-10T01:28:17.489Z,97948.44
2022-09-10T01:30:56.781Z,97938.91
2022-09-10T01:33:52.770Z,97930.16
2022-09-10T01:36:28.546Z,97925.66
2022-09-10T01:38:58.064Z,97939.41
2022-09-10T01:41:28.803Z,97944.13
2022-09-10T01:43:58.399Z,97934.09
2022-09-10T01:46:55.068Z,97923.00
2022-09-10T01:49:43.980Z,97928.81
2022-09-10T01:52:37.252Z,97924.56
2022-09-10T01:55:14.964Z,97929.31
2022-09-10T01:58:02.129Z,97920.84
2022-09-10T02:00:50.015Z,97925.03
2022-09-10T02:03:23.254Z,97930.81
2022-09-10T02:05:56.457Z,97939.28
2022-09-10T02:08:35.238Z,97942.50
2022-09-10T02:11:09.275Z,97951.44
2022-09-10T02:13:45.150Z,97946.47
2022-09-10T02:16:39.222Z,97943.47
2022-09-10T02:19:09.283Z,97936.81
2022-09-10T02:21:38.786Z,97925.16
2022-09-10T02:24:12.831Z,97923.25
2022-09-10T02:26:44.937Z,97916.84
2022-09-10T02:29:16.704Z,97913.16
2022-09-10T02:31:47.459Z,97904.16
2022-09-10T02:34:17.165Z,97899.69
2022-09-10T02:36:49.593Z,97904.47
2022-09-10T02:39:19.029Z,97918.19
2022-09-10T02:41:48.254Z,97910.50
2022-09-10T02:44:17.925Z,97900.97
2022-09-10T02:46:47.566Z,97892.50
2022-09-10T02:49:18.119Z,97901.50
2022-09-10T02:51:50.556Z,97914.13
2022-09-10T02:54:20.266Z,97909.28
2022-09-10T02:56:49.934Z,97913.47
2022-09-10T02:59:19.215Z,97916.59
2022-09-10T03:01:48.658Z,97910.28
2022-09-10T03:04:18.025Z,97908.69
2022-09-10T03:06:49.546Z,97915.56
2022-09-10T03:09:19.060Z,97916.59
2022-09-10T03:11:51.340Z,97920.53
2022-09-10T03:14:23.667Z,97915.56
2022-09-10T03:16:52.967Z,97913.47
2022-09-10T03:19:22.281Z,97917.72
2022-09-10T03:21:53.075Z,97901.81
2022-09-10T03:24:22.509Z,97893.34
2022-09-10T03:26:51.753Z,97888.59
2022-09-10T03:29:23.228Z,97888.03
2022-09-10T03:31:52.637Z,97885.91
2022-09-10T03:34:23.402Z,97892.78
2022-09-10T03:36:52.779Z,97889.59
2022-09-10T03:39:22.040Z,97888.50
2022-09-10T03:41:51.360Z,97891.41
2022-09-10T03:44:20.557Z,97881.09
2022-09-10T03:46:51.317Z,97882.13
2022-09-10T03:49:20.992Z,97872.38
2022-09-10T03:51:51.624Z,97872.09
2022-09-10T03:54:21.522Z,97866.53
2022-09-10T03:56:51.169Z,97864.44
2022-09-10T03:59:20.961Z,97860.13
2022-09-10T04:01:50.806Z,97855.34
2022-09-10T04:04:20.091Z,97857.75
2022-09-10T04:06:49.583Z,97862.22
2022-09-10T04:09:20.055Z,97861.44
2022-09-10T04:11:49.322Z,97862.72
2022-09-10T04:14:19.580Z,97868.50
2022-09-10T04:16:50.134Z,97868.19
2022-09-10T04:19:21.134Z,97864.22
2022-09-10T04:21:53.019Z,97861.81
2022-09-10T04:24:22.492Z,97855.97
2022-09-10T04:26:52.308Z,97854.63
2022-09-10T04:29:21.605Z,97858.00
2022-09-10T04:31:51.370Z,97848.50
2022-09-10T04:34:22.832Z,97848.81
2022-09-10T04:36:53.676Z,97846.44
2022-09-10T04:39:23.666Z,97837.50
2022-09-10T04:41:53.033Z,97847.31
2022-09-10T04:44:22.862Z,97843.81
2022-09-10T04:46:52.053Z,97849.41
2022-09-10T04:49:21.479Z,97855.22
2022-09-10T04:51:50.802Z,97861.34
2022-09-10T04:54:21.207Z,97856.31
2022-09-10T04:56:51.275Z,97858.13
2022-09-10T04:59:21.325Z,97858.22
2022-09-10T05:01:50.782Z,97870.94
2022-09-10T05:04:20.536Z,97875.78
2022-09-10T05:06:51.251Z,97871.09
2022-09-10T05:09:21.254Z,97877.19
2022-09-10T05:11:50.537Z,97870.13
2022-09-10T05:14:22.920Z,97875.44
2022-09-10T05:16:52.471Z,97877.59
2022-09-10T05:19:22.173Z,97868.16
2022-09-10T05:22:00.846Z,97857.13
2022-09-10T05:24:32.016Z,97858.81
2022-09-10T05:27:02.091Z,97855.19
2022-09-10T05:29:31.311Z,97862.69
2022-09-10T05:32:01.172Z,97853.50
2022-09-10T05:34:30.459Z,97861.44
2022-09-10T05:37:00.295Z,97865.44
2022-09-10T05:39:29.544Z,97862.03
2022-09-10T05:42:00.612Z,97864.41
2022-09-10T05:44:29.913Z,97870.25
2022-09-10T05:46:59.755Z,97871.84
2022-09-10T05:49:30.520Z,97876.09
2022-09-10T05:51:59.753Z,97870.75
2022-09-10T05:54:28.973Z,97865.47
2022-09-10T05:56:58.831Z,97863.91
2022-09-10T05:59:28.050Z,97865.50
2022-09-10T06:01:58.191Z,97870.31
2022-09-10T06:04:28.061Z,97866.91
2022-09-10T06:06:57.709Z,97866.66
2022-09-10T06:09:26.936Z,97865.06
2022-09-10T06:12:01.497Z,97860.31
2022-09-10T06:14:31.800Z,97858.75
2022-09-10T06:17:01.883Z,97865.88
2022-09-10T06:19:33.225Z,97871.19
2022-09-10T06:22:02.541Z,97859.34
2022-09-10T06:24:36.661Z,97856.16
2022-09-10T06:27:06.963Z,97852.72
2022-09-10T06:29:37.368Z,97854.59
2022-09-10T06:32:07.267Z,97854.59
2022-09-10T06:34:36.575Z,97853.50
2022-09-10T06:37:07.814Z,97856.69
2022-09-10T06:39:41.066Z,97862.50
2022-09-10T06:42:10.455Z,97853.50
2022-09-10T06:45:00.220Z,97854.56
2022-09-10T06:50:53.463Z,97862.78
2022-09-10T06:53:28.692Z,97863.53
2022-09-10T06:56:01.397Z,97860.91
2022-09-10T06:58:39.249Z,97858.78
2022-09-10T07:01:15.795Z,97854.53
2022-09-10T07:03:56.935Z,97862.44
2022-09-10T07:06:33.712Z,97860.56
2022-09-10T07:09:15.506Z,97858.69
2022-09-10T07:12:04.841Z,97852.50
2022-09-10T07:14:37.438Z,97846.94
2022-09-10T07:17:09.802Z,97849.28
2022-09-10T07:19:40.359Z,97851.66
2022-09-10T07:22:17.182Z,97844.00
2022-09-10T07:24:50.331Z,97842.13
2022-09-10T07:27:33.268Z,97833.66
2022-09-10T07:30:03.052Z,97836.53
2022-09-10T07:32:33.685Z,97823.47
2022-09-10T07:35:09.963Z,97834.03
2022-09-10T07:37:40.193Z,97833.41
2022-09-10T07:40:10.629Z,97839.19
2022-09-10T07:42:42.033Z,97834.91
2022-09-10T07:45:15.771Z,97829.66
2022-09-10T07:47:48.066Z,97835.56
2022-09-10T07:50:19.154Z,97834.50
2022-09-10T07:52:50.814Z,97841.94
2022-09-10T07:55:20.556Z,97841.38
2022-09-10T07:57:50.081Z,97844.06
2022-09-10T08:00:19.676Z,97847.78
2022-09-10T08:02:53.599Z,97852.56
2022-09-10T08:05:24.528Z,97852.03
2022-09-10T08:07:57.209Z,97844.28
2022-09-10T08:10:29.057Z,97851.09
2022-09-10T08:12:59.527Z,97844.06
2022-09-10T08:15:28.829Z,97847.72
2022-09-10T08:18:00.833Z,97854.31
2022-09-10T08:20:30.187Z,97860.09
2022-09-10T08:23:00.782Z,97858.44
2022-09-10T08:25:31.050Z,97861.56
2022-09-10T08:28:00.930Z,97864.19
2022-09-10T08:30:32.235Z,97854.34
2022-09-10T08:33:02.223Z,97855.91
2022-09-10T08:35:32.273Z,97851.25
2022-09-10T08:38:01.532Z,97850.47
2022-09-10T08:40:32.672Z,97848.28
2022-09-10T08:43:02.723Z,97843.56
2022-09-10T08:45:34.803Z,97845.34
2022-09-10T08:48:20.706Z,97844.63
2022-09-10T08:51:21.161Z,97846.72
2022-09-10T08:53:59.869Z,97850.75
2022-09-10T08:56:30.293Z,97853.16
2022-09-10T08:59:17.210Z,97842.91
2022-09-10T09:01:59.396Z,97839.09
2022-09-10T09:04:55.439Z,97839.88
2022-09-10T09:07:34.951Z,97835.81
2022-09-10T09:10:17.584Z,97830.75
2022-09-10T09:13:20.115Z,97832.69
2022-09-10T09:16:35.519Z,97824.84
2022-09-10T09:19:26.800Z,97819.66
2022-09-10T09:22:15.848Z,97824.50
2022-09-10T09:25:20.133Z,97824.31
2022-09-10T09:27:57.926Z,97825.00
2022-09-10T09:30:49.217Z,97820.78
2022-09-10T09:33:23.754Z,97818.38
2022-09-10T09:36:03.157Z,97810.78
2022-09-10T09:38:41.342Z,97811.16
2022-09-10T09:41:59.287Z,97811.25
2022-09-10T09:44:56.990Z,97811.66
2022-09-10T09:47:27.519Z,97803.28
2022-09-10T09:49:58.221Z,97800.13
2022-09-10T09:52:31.949Z,97803.72
2022-09-10T09:55:23.075Z,97795.53
2022-09-10T09:58:21.260Z,97791.34
2022-09-10T10:01:09.768Z,97785.53
2022-09-10T10:04:01.784Z,97791.81
2022-09-10T10:06:33.312Z,97791.13
2022-09-10T10:09:20.323Z,97783.22
2022-09-10T10:11:59.436Z,97781.47
2022-09-10T10:14:31.595Z,97775.69
2022-09-10T10:17:01.798Z,97773.66
2022-09-10T10:19:40.255Z,97774.84
2022-09-10T10:22:18.047Z,97766.41
2022-09-10T10:24:51.563Z,97770.91
2022-09-10T10:27:36.737Z,97770.94
2022-09-10T10:30:24.027Z,97761.69
2022-09-10T10:33:03.032Z,97763.53
2022-09-10T10:35:44.415Z,97776.78
2022-09-10T10:38:39.893Z,97780.38
2022-09-10T10:41:46.991Z,97783.84
2022-09-10T10:44:38.625Z,97788.88
2022-09-10T10:47:20.093Z,97786.88
2022-09-10T10:50:42.805Z,97776.09
2022-09-10T10:54:04.308Z,97776.00
2022-09-10T10:56:42.612Z,97764.91
2022-09-10T10:59:42.434Z,97769.97
2022-09-10T11:02:20.731Z,97758.56
2022-09-10T11:04:53.720Z,97766.06
2022-09-10T11:07:29.068Z,97761.00
2022-09-10T11:10:11.518Z,97771.41
2022-09-10T11:13:09.369Z,97768.00
2022-09-10T11:15:50.033Z,97773.03
2022-09-10T11:18:33.467Z,97771.94
2022-09-10T11:21:21.545Z,97759.56
2022-09-10T11:24:17.526Z,97768.16
2022-09-10T11:27:08.405Z,97751.97
2022-09-10T11:29:46.070Z,97759.22
2022-09-10T11:32:42.836Z,97763.53
2022-09-10T11:35:22.079Z,97770.66
2022-09-10T11:38:23.284Z,97766.25
2022-09-10T11:41:22.337Z,97787.16
2022-09-10T11:44:36.611Z,97768.28
2022-09-10T11:47:28.004Z,97772.47
2022-09-10T11:50:11.136Z,97772.97
2022-09-10T11:52:40.532Z,97759.97
2022-09-10T11:55:17.473Z,97768.84
2022-09-10T11:57:58.480Z,97770.13
2022-09-10T12:00:39.097Z,97761.19
2022-09-10T12:03:35.373Z,97767.88
2022-09-10T12:06:26.706Z,97769.28
2022-09-10T12:09:10.636Z,97766.25
2022-09-10T12:12:18.158Z,97757.84
2022-09-10T12:14:47.847Z,97747.59
2022-09-10T12:17:27.268Z,97745.63
2022-09-10T12:20:00.471Z,97736.13
2022-09-10T12:22:36.877Z,97743.09
2022-09-10T12:25:22.454Z,97732.69
2022-09-10T12:27:57.220Z,97736.13
2022-09-10T12:30:35.089Z,97736.06
2022-09-10T12:33:13.216Z,97735.50
2022-09-10T12:35:51.161Z,97733.44
2022-09-10T12:38:54.173Z,97730.44
2022-09-10T12:41:23.327Z,97738.47
2022-09-10T12:44:01.274Z,97719.09
2022-09-10T12:46:32.332Z,97717.81
2022-09-10T12:49:01.541Z,97718.94
2022-09-10T12:51:51.796Z,97731.06
2022-09-10T12:54:48.879Z,97726.66
2022-09-10T12:57:59.216Z,97707.19
2022-09-10T13:00:58.149Z,97716.53
2022-09-10T13:03:30.452Z,97710.63
2022-09-10T13:06:04.401Z,97712.31
2022-09-10T13:08:42.078Z,97704.84
2022-09-10T13:11:17.641Z,97718.66
2022-09-10T13:14:03.794Z,97713.97
2022-09-10T13:16:33.314Z,97716.41
2022-09-10T13:19:14.654Z,97714.06
2022-09-10T13:21:43.802Z,97712.38
2022-09-10T13:24:35.611Z,97715.78
2022-09-10T13:27:33.974Z,97702.06
2022-09-10T13:30:23.456Z,97710.53
2022-09-10T13:33:07.600Z,97703.53
2022-09-10T13:36:25.163Z,97711.53
2022-09-10T13:39:15.316Z,97721.50
2022-09-10T13:42:11.717Z,97711.69
2022-09-10T13:45:26.728Z,97720.88
2022-09-10T13:48:17.501Z,97723.63
2022-09-10T13:51:01.613Z,97723.00
2022-09-10T13:53:34.338Z,97728.41
2022-09-10T13:56:22.769Z,97731.19
2022-09-10T13:59:00.936Z,97727.94
2022-09-10T14:01:53.785Z,97740.81
2022-09-10T14:04:44.927Z,97727.19
2022-09-10T14:07:22.837Z,97729.91
2022-09-10T14:09:59.282Z,97740.47
2022-09-10T14:12:34.000Z,97744.25
2022-09-10T14:15:06.776Z,97734.22
2022-09-10T14:17:45.155Z,97746.22
2022-09-10T14:20:18.733Z,97740.50
2022-09-10T14:22:49.058Z,97736.41
2022-09-10T14:25:40.162Z,97746.31
2022-09-10T14:28:28.147Z,97737.38
2022-09-10T14:31:26.655Z,97758.53
2022-09-10T14:34:36.171Z,97755.97
2022-09-10T14:37:44.378Z,97748.09
2022-09-10T14:40:22.246Z,97757.31
2022-09-10T14:42:51.459Z,97766.78
2022-09-10T14:45:41.958Z,97756.19
2022-09-10T14:48:39.096Z,97757.09
2022-09-10T14:51:25.627Z,97754.69
2022-09-10T14:53:57.561Z,97748.53
2022-09-10T14:56:40.754Z,97749.16
2022-09-10T14:59:55.289Z,97754.38
2022-09-10T15:02:28.630Z,97742.66
2022-09-10T15:04:57.951Z,97748.09
2022-09-10T15:07:27.898Z,97747.84
2022-09-10T15:09:57.173Z,97746.16
2022-09-10T15:12:31.985Z,97737.50
2022-09-10T15:15:01.278Z,97740.75
2022-09-10T15:17:31.783Z,97735.84
2022-09-10T15:20:03.583Z,97747.22
2022-09-10T15:22:33.156Z,97757.41
2022-09-10T15:25:11.005Z,97771.78
2022-09-10T15:27:40.507Z,97774.34
2022-09-10T15:30:10.385Z,97775.66
2022-09-10T15:32:39.576Z,97777.78
2022-09-10T15:35:09.639Z,97781.00
2022-09-10T15:37:38.884Z,97785.25
2022-09-10T15:40:10.286Z,97791.28
2022-09-10T15:42:39.925Z,97805.16
2022-09-10T15:45:09.761Z,97803.13
2022-09-10T15:47:41.937Z,97802.47
2022-09-10T15:50:11.998Z,97801.00
2022-09-10T15:52:41.184Z,97804.06
2022-09-10T15:55:12.387Z,97812.16
2022-09-10T15:57:41.694Z,97820.28
2022-09-10T16:00:12.367Z,97841.59
2022-09-10T16:02:42.259Z,97866.66
2022-09-10T16:05:12.290Z,97867.44
2022-09-10T16:07:44.532Z,97864.00
2022-09-10T16:10:15.403Z,97886.47
2022-09-10T16:12:44.636Z,97890.50
2022-09-10T16:15:14.002Z,97894.94
2022-09-10T16:17:43.204Z,97898.56
2022-09-10T16:20:12.581Z,97900.53
2022-09-10T16:22:41.862Z,97890.00
2022-09-10T16:25:12.120Z,97885.03
2022-09-10T16:27:43.371Z,97882.56
2022-09-10T16:30:13.879Z,97882.13
2022-09-10T16:32:43.058Z,97879.97
2022-09-10T16:35:12.230Z,97884.22
2022-09-10T16:37:41.513Z,97884.44
2022-09-10T16:40:11.981Z,97880.13
2022-09-10T16:42:41.179Z,97878.53
2022-09-10T16:45:10.582Z,97871.13
2022-09-10T16:47:39.828Z,97870.06
2022-09-10T16:50:09.790Z,97873.50
2022-09-10T16:52:39.268Z,97860.78
2022-09-10T16:55:08.614Z,97869.97
2022-09-10T16:57:37.857Z,97863.00
2022-09-10T17:00:10.546Z,97862.41
2022-09-10T17:02:40.954Z,97860.47
2022-09-10T17:05:11.252Z,97862.50
2022-09-10T17:07:40.448Z,97870.06
2022-09-10T17:10:10.159Z,97876.38
2022-09-10T17:12:39.401Z,97869.00
2022-09-10T17:15:09.108Z,97880.03
2022-09-10T17:17:38.448Z,97887.41
2022-09-10T17:20:08.506Z,97887.41
2022-09-10T17:22:37.894Z,97872.28
2022-09-10T17:25:07.710Z,97885.28
2022-09-10T17:27:36.946Z,97882.66
2022-09-10T17:30:07.334Z,97887.13
2022-09-10T17:32:36.530Z,97883.19
2022-09-10T17:35:06.574Z,97876.84
2022-09-10T17:37:36.799Z,97876.66
2022-09-10T17:40:07.501Z,97884.31
2022-09-10T17:42:36.780Z,97888.59
2022-09-10T17:45:07.473Z,97895.50
2022-09-10T17:47:36.669Z,97891.50
2022-09-10T17:50:06.588Z,97894.47
2022-09-10T17:52:35.836Z,97886.53
2022-09-10T17:55:05.833Z,97906.13
2022-09-10T17:57:35.729Z,97903.16
2022-09-10T18:00:05.516Z,97907.09
2022-09-10T18:02:34.739Z,97917.91
2022-09-10T18:05:05.655Z,97918.16
2022-09-10T18:07:34.873Z,97921.06
2022-09-10T18:10:05.230Z,97929.53
2022-09-10T18:12:34.431Z,97923.69
2022-09-10T18:15:04.067Z,97919.22
2022-09-10T18:17:33.360Z,97918.66
2022-09-10T18:20:02.747Z,97917.38
2022-09-10T18:22:33.100Z,97920.50
2022-09-10T18:25:02.487Z,97914.88
2022-09-10T18:27:31.819Z,97932.00
2022-09-10T18:30:01.335Z,97935.09
2022-09-10T18:32:30.702Z,97937.97
2022-09-10T18:35:00.013Z,97941.63
2022-09-10T18:37:30.022Z,97927.34
2022-09-10T18:39:59.550Z,97940.34
2022-09-10T18:42:28.826Z,97940.91
2022-09-10T18:44:58.195Z,97941.97
2022-09-10T18:47:44.048Z,97937.97
2022-09-10T18:50:14.188Z,97945.41
2022-09-10T18:52:43.459Z,97947.47
2022-09-10T18:55:12.644Z,97950.09
2022-09-10T18:57:42.093Z,97944.25
2022-09-10T19:00:12.427Z,97943.78
2022-09-10T19:02:41.685Z,97940.44
2022-09-10T19:05:12.179Z,97934.59
2022-09-10T19:07:41.840Z,97930.16
2022-09-10T19:10:11.013Z,97930.94
2022-09-10T19:12:40.208Z,97927.03
2022-09-10T19:15:10.197Z,97927.53
2022-09-10T19:17:39.763Z,97930.72
2022-09-10T19:20:09.777Z,97935.44
2022-09-10T19:22:39.174Z,97929.06
2022-09-10T19:25:09.323Z,97933.69
2022-09-10T19:27:39.494Z,97928.38
2022-09-10T19:30:09.660Z,97932.59
2022-09-10T19:32:38.854Z,97935.63
2022-09-10T19:35:10.362Z,97935.28
2022-09-10T19:37:39.594Z,97927.28
2022-09-10T19:40:12.000Z,97934.63
2022-09-10T19:42:41.269Z,97938.00
2022-09-10T19:45:10.640Z,97937.94
2022-09-10T19:47:40.292Z,97946.31
2022-09-10T19:50:10.332Z,97941.25
2022-09-10T19:52:40.944Z,97941.91
2022-09-10T19:55:12.718Z,97930.78
2022-09-10T19:57:41.952Z,97931.25
2022-09-10T20:00:30.061Z,97922.72
2022-09-10T20:03:02.169Z,97926.34
2022-09-10T20:05:34.183Z,97928.66
2022-09-10T20:08:04.997Z,97929.41
2022-09-10T20:10:34.266Z,97928.78
2022-09-10T20:13:04.778Z,97939.13
2022-09-10T20:15:41.267Z,97935.31
2022-09-10T20:18:14.126Z,97938.59
2022-09-10T20:20:43.318Z,97932.69
2022-09-10T20:23:12.848Z,97928.13
2022-09-10T20:25:43.279Z,97940.75
2022-09-10T20:28:13.301Z,97942.72
2022-09-10T20:30:43.861Z,97938.41
2022-09-10T20:33:13.105Z,97938.97
2022-09-10T20:35:42.917Z,97947.19
2022-09-10T20:38:12.880Z,97944.53
2022-09-10T20:40:42.584Z,97946.41
2022-09-10T20:43:12.425Z,97949.81
2022-09-10T20:45:44.742Z,97944.81
2022-09-10T20:48:14.307Z,97953.25
2022-09-10T20:50:55.379Z,97936.25
2022-09-10T20:53:26.606Z,97950.47
2022-09-10T20:56:11.542Z,97939.84
2022-09-10T20:58:41.782Z,97947.16
2022-09-10T21:01:19.035Z,97949.16
2022-09-10T21:03:49.603Z,97945.41
2022-09-10T21:06:23.495Z,97955.75
2022-09-10T21:08:56.001Z,97947.06
2022-09-10T21:11:29.664Z,97954.50
2022-09-10T21:14:02.203Z,97960.28
2022-09-10T21:16:43.508Z,97956.84
2022-09-10T21:19:16.313Z,97961.59
2022-09-10T21:21:48.904Z,97956.31
2022-09-10T21:24:22.702Z,97959.41
2022-09-10T21:26:53.673Z,97963.06
2022-09-10T21:29:23.142Z,97969.94
2022-09-10T21:31:56.198Z,97955.56
2022-09-10T21:34:25.495Z,97970.66
2022-09-10T21:36:55.262Z,97971.75
2022-09-10T21:39:24.590Z,97977.81
2022-09-10T21:41:53.811Z,97987.09
2022-09-10T21:44:25.059Z,97980.41
2022-09-10T21:46:54.379Z,97980.75
2022-09-10T21:49:23.720Z,97971.84
2022-09-10T21:51:52.892Z,97972.66
2022-09-10T21:54:24.346Z,97977.91
2022-09-10T21:56:53.584Z,97970.69
2022-09-10T21:59:26.749Z,97967.06
2022-09-10T22:01:56.050Z,97969.88
2022-09-10T22:04:25.501Z,97970.81
2022-09-10T22:06:55.024Z,97969.69
2022-09-10T22:09:24.515Z,97970.16
2022-09-10T22:11:54.531Z,97950.41
2022-09-10T22:14:25.062Z,97962.50
2022-09-10T22:16:55.084Z,97954.06
2022-09-10T22:19:26.179Z,97954.84
2022-09-10T22:21:56.872Z,97949.75
2022-09-10T22:24:26.397Z,97964.63
2022-09-10T22:26:55.781Z,97971.44
2022-09-10T22:29:25.230Z,97969.59
2022-09-10T22:31:54.728Z,97963.09
2022-09-10T22:34:24.196Z,97969.94
2022-09-10T22:36:53.405Z,97967.69
2022-09-10T22:39:23.193Z,97962.66
2022-09-10T22:41:52.478Z,97969.28
2022-09-10T22:44:23.191Z,97976.25
2022-09-10T22:46:52.501Z,97974.31
2022-09-10T22:49:21.992Z,97961.41
2022-09-10T22:51:51.412Z,97971.78
2022-09-10T22:54:20.689Z,97962.88
2022-09-10T22:56:50.248Z,97960.97
2022-09-10T22:59:19.579Z,97955.81
2022-09-10T23:01:48.939Z,97949.88
2022-09-10T23:04:18.159Z,97956.72
2022-09-10T23:06:47.373Z,97952.38
2022-09-10T23:09:18.328Z,97954.91
2022-09-10T23:11:47.718Z,97951.16
2022-09-10T23:14:20.792Z,97952.97
2022-09-10T23:16:51.894Z,97947.50
2022-09-10T23:19:24.557Z,97953.53
2022-09-10T23:21:55.404Z,97956.97
2022-09-10T23:24:26.644Z,97944.06
2022-09-10T23:26:56.043Z,97956.97
2022-09-10T23:29:25.375Z,97959.16
2022-09-10T23:31:54.594Z,97957.31
2022-09-10T23:34:24.037Z,97952.88
2022-09-10T23:36:53.964Z,97962.09
2022-09-10T23:39:24.897Z,97957.63
2022-09-10T23:41:57.984Z,97961.28
2022-09-10T23:44:27.804Z,97969.66
2022-09-10T23:46:57.545Z,97969.06
2022-09-10T23:49:26.937Z,97972.94
2022-09-10T23:51:56.161Z,97972.38
2022-09-10T23:54:25.454Z,97964.84
2022-09-10T23:56:54.683Z,97969.97
2022-09-10T23:59:23.874Z,97968.94
